sensor_id;sensor_type;location;lat;lon;timestamp;P1;durP1;ratioP1;P2;durP2;ratioP2
43184;SDS011;28803;52.308;19.096;2022-11-25T00:01:20;80.68;;;22.67;;
43184;SDS011;28803;52.308;19.096;2022-11-25T00:03:49;85.20;;;19.27;;
43184;SDS011;28803;52.308;19.096;2022-11-25T00:06:24;71.57;;;20.50;;
43184;SDS011;28803;52.308;19.096;2022-11-25T00:08:54;78.32;;;20.05;;
43184;SDS011;28803;52.308;19.096;2022-11-25T00:11:25;79.60;;;20.13;;
43184;SDS011;28803;52.308;19.096;2022-11-25T00:13:53;79.03;;;19.67;;
43184;SDS011;28803;52.308;19.096;2022-11-25T00:16:21;89.25;;;21.23;;
43184;SDS011;28803;52.308;19.096;2022-11-25T00:18:50;73.07;;;19.45;;
43184;SDS011;28803;52.308;19.096;2022-11-25T00:21:20;91.20;;;20.30;;
43184;SDS011;28803;52.308;19.096;2022-11-25T00:23:58;69.53;;;19.85;;
43184;SDS011;28803;52.308;19.096;2022-11-25T00:26:30;66.15;;;18.13;;
43184;SDS011;28803;52.308;19.096;2022-11-25T00:28:59;72.30;;;19.17;;
43184;SDS011;28803;52.308;19.096;2022-11-25T00:31:32;68.43;;;19.88;;
43184;SDS011;28803;52.308;19.096;2022-11-25T00:34:01;80.97;;;20.33;;
43184;SDS011;28803;52.308;19.096;2022-11-25T00:36:29;92.50;;;21.42;;
43184;SDS011;28803;52.308;19.096;2022-11-25T00:39:02;77.35;;;22.15;;
43184;SDS011;28803;52.308;19.096;2022-11-25T00:41:31;71.43;;;20.63;;
43184;SDS011;28803;52.308;19.096;2022-11-25T00:44:18;73.90;;;21.15;;
43184;SDS011;28803;52.308;19.096;2022-11-25T00:47:03;72.97;;;20.42;;
43184;SDS011;28803;52.308;19.096;2022-11-25T00:49:34;82.10;;;19.58;;
43184;SDS011;28803;52.308;19.096;2022-11-25T00:52:03;83.97;;;23.52;;
43184;SDS011;28803;52.308;19.096;2022-11-25T00:54:31;99.00;;;20.52;;
43184;SDS011;28803;52.308;19.096;2022-11-25T00:56:59;69.32;;;19.95;;
43184;SDS011;28803;52.308;19.096;2022-11-25T00:59:26;88.40;;;19.42;;
43184;SDS011;28803;52.308;19.096;2022-11-25T01:01:54;85.20;;;20.95;;
43184;SDS011;28803;52.308;19.096;2022-11-25T01:04:21;97.45;;;21.83;;
43184;SDS011;28803;52.308;19.096;2022-11-25T01:06:49;78.07;;;19.90;;
43184;SDS011;28803;52.308;19.096;2022-11-25T01:09:16;76.15;;;22.00;;
43184;SDS011;28803;52.308;19.096;2022-11-25T01:11:43;86.80;;;20.10;;
43184;SDS011;28803;52.308;19.096;2022-11-25T01:14:10;97.63;;;22.15;;
43184;SDS011;28803;52.308;19.096;2022-11-25T01:16:37;97.32;;;21.55;;
43184;SDS011;28803;52.308;19.096;2022-11-25T01:19:04;83.95;;;20.77;;
43184;SDS011;28803;52.308;19.096;2022-11-25T01:21:32;86.15;;;20.50;;
43184;SDS011;28803;52.308;19.096;2022-11-25T01:24:00;85.53;;;22.80;;
43184;SDS011;28803;52.308;19.096;2022-11-25T01:26:28;82.60;;;21.83;;
43184;SDS011;28803;52.308;19.096;2022-11-25T01:28:57;83.65;;;20.40;;
43184;SDS011;28803;52.308;19.096;2022-11-25T01:31:27;90.80;;;21.08;;
43184;SDS011;28803;52.308;19.096;2022-11-25T01:33:58;101.07;;;21.60;;
43184;SDS011;28803;52.308;19.096;2022-11-25T01:36:26;115.57;;;24.85;;
43184;SDS011;28803;52.308;19.096;2022-11-25T01:38:55;117.88;;;25.10;;
43184;SDS011;28803;52.308;19.096;2022-11-25T01:41:26;89.93;;;24.17;;
43184;SDS011;28803;52.308;19.096;2022-11-25T01:44:29;104.60;;;23.50;;
43184;SDS011;28803;52.308;19.096;2022-11-25T01:47:01;110.72;;;23.38;;
43184;SDS011;28803;52.308;19.096;2022-11-25T01:49:34;98.18;;;21.05;;
43184;SDS011;28803;52.308;19.096;2022-11-25T01:52:27;105.15;;;23.27;;
43184;SDS011;28803;52.308;19.096;2022-11-25T01:55:02;122.22;;;23.77;;
43184;SDS011;28803;52.308;19.096;2022-11-25T01:57:36;85.10;;;23.42;;
43184;SDS011;28803;52.308;19.096;2022-11-25T02:00:08;109.35;;;25.38;;
43184;SDS011;28803;52.308;19.096;2022-11-25T02:02:36;112.85;;;26.67;;
43184;SDS011;28803;52.308;19.096;2022-11-25T02:05:07;91.53;;;24.08;;
43184;SDS011;28803;52.308;19.096;2022-11-25T02:07:37;106.97;;;21.98;;
43184;SDS011;28803;52.308;19.096;2022-11-25T02:10:10;93.40;;;23.55;;
43184;SDS011;28803;52.308;19.096;2022-11-25T02:12:40;107.43;;;24.15;;
43184;SDS011;28803;52.308;19.096;2022-11-25T02:15:09;104.05;;;23.88;;
43184;SDS011;28803;52.308;19.096;2022-11-25T02:17:36;99.10;;;23.65;;
43184;SDS011;28803;52.308;19.096;2022-11-25T02:22:46;100.43;;;21.77;;
43184;SDS011;28803;52.308;19.096;2022-11-25T02:25:23;89.90;;;22.38;;
43184;SDS011;28803;52.308;19.096;2022-11-25T02:30:31;97.85;;;21.42;;
43184;SDS011;28803;52.308;19.096;2022-11-25T02:32:58;88.05;;;21.85;;
43184;SDS011;28803;52.308;19.096;2022-11-25T02:35:28;101.57;;;23.10;;
43184;SDS011;28803;52.308;19.096;2022-11-25T02:38:20;78.53;;;20.00;;
43184;SDS011;28803;52.308;19.096;2022-11-25T02:40:52;89.55;;;20.48;;
43184;SDS011;28803;52.308;19.096;2022-11-25T02:43:24;102.78;;;23.25;;
43184;SDS011;28803;52.308;19.096;2022-11-25T02:46:03;79.18;;;22.23;;
43184;SDS011;28803;52.308;19.096;2022-11-25T02:48:36;108.65;;;20.73;;
43184;SDS011;28803;52.308;19.096;2022-11-25T02:51:26;87.18;;;23.38;;
43184;SDS011;28803;52.308;19.096;2022-11-25T02:53:55;85.20;;;23.67;;
43184;SDS011;28803;52.308;19.096;2022-11-25T02:56:25;80.28;;;21.65;;
43184;SDS011;28803;52.308;19.096;2022-11-25T02:58:54;86.18;;;20.95;;
43184;SDS011;28803;52.308;19.096;2022-11-25T03:01:21;71.13;;;20.60;;
43184;SDS011;28803;52.308;19.096;2022-11-25T03:03:49;88.78;;;23.25;;
43184;SDS011;28803;52.308;19.096;2022-11-25T03:06:16;107.68;;;23.10;;
43184;SDS011;28803;52.308;19.096;2022-11-25T03:08:43;67.80;;;19.38;;
43184;SDS011;28803;52.308;19.096;2022-11-25T03:11:11;80.32;;;20.90;;
43184;SDS011;28803;52.308;19.096;2022-11-25T03:13:38;67.95;;;20.50;;
43184;SDS011;28803;52.308;19.096;2022-11-25T03:16:05;65.90;;;20.02;;
43184;SDS011;28803;52.308;19.096;2022-11-25T03:18:33;69.20;;;19.17;;
43184;SDS011;28803;52.308;19.096;2022-11-25T03:21:00;67.15;;;20.00;;
43184;SDS011;28803;52.308;19.096;2022-11-25T03:23:27;66.53;;;20.17;;
43184;SDS011;28803;52.308;19.096;2022-11-25T03:25:55;63.50;;;17.83;;
43184;SDS011;28803;52.308;19.096;2022-11-25T03:28:22;79.55;;;19.00;;
43184;SDS011;28803;52.308;19.096;2022-11-25T03:30:49;65.75;;;17.90;;
43184;SDS011;28803;52.308;19.096;2022-11-25T03:33:16;64.07;;;17.27;;
43184;SDS011;28803;52.308;19.096;2022-11-25T03:35:43;67.93;;;19.13;;
43184;SDS011;28803;52.308;19.096;2022-11-25T03:38:10;78.82;;;19.33;;
43184;SDS011;28803;52.308;19.096;2022-11-25T03:40:37;64.13;;;15.95;;
43184;SDS011;28803;52.308;19.096;2022-11-25T03:43:04;53.28;;;16.02;;
43184;SDS011;28803;52.308;19.096;2022-11-25T03:45:31;64.43;;;16.70;;
43184;SDS011;28803;52.308;19.096;2022-11-25T03:47:58;66.97;;;17.48;;
43184;SDS011;28803;52.308;19.096;2022-11-25T03:50:26;68.15;;;19.08;;
43184;SDS011;28803;52.308;19.096;2022-11-25T03:52:52;62.38;;;19.08;;
43184;SDS011;28803;52.308;19.096;2022-11-25T03:55:20;58.25;;;16.95;;
43184;SDS011;28803;52.308;19.096;2022-11-25T03:57:46;62.28;;;19.20;;
43184;SDS011;28803;52.308;19.096;2022-11-25T04:00:14;65.85;;;18.40;;
43184;SDS011;28803;52.308;19.096;2022-11-25T04:02:41;50.95;;;16.33;;
43184;SDS011;28803;52.308;19.096;2022-11-25T04:05:08;55.67;;;17.02;;
43184;SDS011;28803;52.308;19.096;2022-11-25T04:07:35;60.90;;;16.25;;
43184;SDS011;28803;52.308;19.096;2022-11-25T04:10:02;52.28;;;16.52;;
43184;SDS011;28803;52.308;19.096;2022-11-25T04:12:30;54.00;;;16.35;;
43184;SDS011;28803;52.308;19.096;2022-11-25T04:15:13;61.25;;;15.40;;
43184;SDS011;28803;52.308;19.096;2022-11-25T04:17:41;59.13;;;18.50;;
43184;SDS011;28803;52.308;19.096;2022-11-25T04:20:08;50.85;;;17.10;;
43184;SDS011;28803;52.308;19.096;2022-11-25T04:22:36;54.70;;;15.13;;
43184;SDS011;28803;52.308;19.096;2022-11-25T04:25:04;53.22;;;15.88;;
43184;SDS011;28803;52.308;19.096;2022-11-25T04:27:31;52.90;;;14.73;;
43184;SDS011;28803;52.308;19.096;2022-11-25T04:29:59;65.57;;;16.70;;
43184;SDS011;28803;52.308;19.096;2022-11-25T04:32:26;61.58;;;17.25;;
43184;SDS011;28803;52.308;19.096;2022-11-25T04:34:53;70.47;;;17.30;;
43184;SDS011;28803;52.308;19.096;2022-11-25T04:37:20;63.22;;;15.68;;
43184;SDS011;28803;52.308;19.096;2022-11-25T04:39:47;63.33;;;16.45;;
43184;SDS011;28803;52.308;19.096;2022-11-25T04:42:14;62.25;;;17.15;;
43184;SDS011;28803;52.308;19.096;2022-11-25T04:45:01;66.97;;;15.80;;
43184;SDS011;28803;52.308;19.096;2022-11-25T04:47:49;63.15;;;16.77;;
43184;SDS011;28803;52.308;19.096;2022-11-25T04:50:18;52.97;;;14.90;;
43184;SDS011;28803;52.308;19.096;2022-11-25T04:52:46;51.03;;;14.60;;
43184;SDS011;28803;52.308;19.096;2022-11-25T04:55:13;55.10;;;15.88;;
43184;SDS011;28803;52.308;19.096;2022-11-25T04:57:41;53.90;;;15.00;;
43184;SDS011;28803;52.308;19.096;2022-11-25T05:00:08;71.80;;;17.27;;
43184;SDS011;28803;52.308;19.096;2022-11-25T05:02:35;77.82;;;16.27;;
43184;SDS011;28803;52.308;19.096;2022-11-25T05:05:03;77.45;;;20.65;;
43184;SDS011;28803;52.308;19.096;2022-11-25T05:07:30;64.55;;;17.73;;
43184;SDS011;28803;52.308;19.096;2022-11-25T05:09:58;66.75;;;17.98;;
43184;SDS011;28803;52.308;19.096;2022-11-25T05:12:26;68.15;;;20.75;;
43184;SDS011;28803;52.308;19.096;2022-11-25T05:14:54;62.75;;;18.08;;
43184;SDS011;28803;52.308;19.096;2022-11-25T05:17:28;69.55;;;19.05;;
43184;SDS011;28803;52.308;19.096;2022-11-25T05:19:56;69.80;;;19.15;;
43184;SDS011;28803;52.308;19.096;2022-11-25T05:22:25;67.32;;;17.90;;
43184;SDS011;28803;52.308;19.096;2022-11-25T05:24:54;69.70;;;19.50;;
43184;SDS011;28803;52.308;19.096;2022-11-25T05:27:21;72.07;;;19.20;;
43184;SDS011;28803;52.308;19.096;2022-11-25T05:29:49;74.32;;;19.02;;
43184;SDS011;28803;52.308;19.096;2022-11-25T05:32:21;64.97;;;17.90;;
43184;SDS011;28803;52.308;19.096;2022-11-25T05:34:49;60.78;;;17.38;;
43184;SDS011;28803;52.308;19.096;2022-11-25T05:37:16;64.57;;;17.50;;
43184;SDS011;28803;52.308;19.096;2022-11-25T05:39:50;53.08;;;14.82;;
43184;SDS011;28803;52.308;19.096;2022-11-25T05:42:17;50.90;;;12.82;;
43184;SDS011;28803;52.308;19.096;2022-11-25T05:44:44;55.40;;;14.85;;
43184;SDS011;28803;52.308;19.096;2022-11-25T05:47:11;53.05;;;16.52;;
43184;SDS011;28803;52.308;19.096;2022-11-25T05:49:39;51.92;;;15.85;;
43184;SDS011;28803;52.308;19.096;2022-11-25T05:52:06;60.20;;;16.10;;
43184;SDS011;28803;52.308;19.096;2022-11-25T05:54:33;63.28;;;15.95;;
43184;SDS011;28803;52.308;19.096;2022-11-25T05:57:00;53.17;;;15.55;;
43184;SDS011;28803;52.308;19.096;2022-11-25T05:59:28;56.15;;;15.93;;
43184;SDS011;28803;52.308;19.096;2022-11-25T06:01:55;55.95;;;15.98;;
43184;SDS011;28803;52.308;19.096;2022-11-25T06:04:22;51.67;;;17.75;;
43184;SDS011;28803;52.308;19.096;2022-11-25T06:06:49;60.80;;;18.45;;
43184;SDS011;28803;52.308;19.096;2022-11-25T06:09:16;52.92;;;16.88;;
43184;SDS011;28803;52.308;19.096;2022-11-25T06:11:43;53.97;;;16.98;;
43184;SDS011;28803;52.308;19.096;2022-11-25T06:14:10;56.53;;;17.60;;
43184;SDS011;28803;52.308;19.096;2022-11-25T06:16:39;60.22;;;17.20;;
43184;SDS011;28803;52.308;19.096;2022-11-25T06:19:06;54.33;;;16.30;;
43184;SDS011;28803;52.308;19.096;2022-11-25T06:21:33;61.63;;;19.27;;
43184;SDS011;28803;52.308;19.096;2022-11-25T06:24:01;60.38;;;19.42;;
43184;SDS011;28803;52.308;19.096;2022-11-25T06:26:28;50.83;;;17.48;;
43184;SDS011;28803;52.308;19.096;2022-11-25T06:28:56;52.85;;;17.15;;
43184;SDS011;28803;52.308;19.096;2022-11-25T06:31:24;56.05;;;17.27;;
43184;SDS011;28803;52.308;19.096;2022-11-25T06:33:52;54.75;;;16.65;;
43184;SDS011;28803;52.308;19.096;2022-11-25T06:36:20;71.95;;;18.50;;
43184;SDS011;28803;52.308;19.096;2022-11-25T06:38:52;78.90;;;20.95;;
43184;SDS011;28803;52.308;19.096;2022-11-25T06:41:22;77.68;;;21.02;;
43184;SDS011;28803;52.308;19.096;2022-11-25T06:43:49;75.53;;;18.33;;
43184;SDS011;28803;52.308;19.096;2022-11-25T06:46:17;75.32;;;21.13;;
43184;SDS011;28803;52.308;19.096;2022-11-25T06:48:53;69.75;;;18.42;;
43184;SDS011;28803;52.308;19.096;2022-11-25T06:51:20;79.20;;;20.50;;
43184;SDS011;28803;52.308;19.096;2022-11-25T06:53:50;71.32;;;19.15;;
43184;SDS011;28803;52.308;19.096;2022-11-25T06:56:18;77.78;;;19.52;;
43184;SDS011;28803;52.308;19.096;2022-11-25T06:58:47;65.28;;;17.42;;
43184;SDS011;28803;52.308;19.096;2022-11-25T07:01:16;57.15;;;18.45;;
43184;SDS011;28803;52.308;19.096;2022-11-25T07:03:46;63.83;;;18.35;;
43184;SDS011;28803;52.308;19.096;2022-11-25T07:06:14;72.15;;;21.17;;
43184;SDS011;28803;52.308;19.096;2022-11-25T07:08:43;72.88;;;20.52;;
43184;SDS011;28803;52.308;19.096;2022-11-25T07:13:43;67.38;;;18.63;;
43184;SDS011;28803;52.308;19.096;2022-11-25T07:16:11;82.07;;;21.52;;
43184;SDS011;28803;52.308;19.096;2022-11-25T07:18:39;70.90;;;21.25;;
43184;SDS011;28803;52.308;19.096;2022-11-25T07:21:07;70.07;;;18.58;;
43184;SDS011;28803;52.308;19.096;2022-11-25T07:23:37;68.22;;;19.58;;
43184;SDS011;28803;52.308;19.096;2022-11-25T07:26:05;77.75;;;21.13;;
43184;SDS011;28803;52.308;19.096;2022-11-25T07:28:38;70.28;;;20.88;;
43184;SDS011;28803;52.308;19.096;2022-11-25T07:31:11;80.32;;;21.95;;
43184;SDS011;28803;52.308;19.096;2022-11-25T07:33:58;85.70;;;23.55;;
43184;SDS011;28803;52.308;19.096;2022-11-25T07:36:33;82.50;;;24.10;;
43184;SDS011;28803;52.308;19.096;2022-11-25T07:39:04;92.28;;;23.10;;
43184;SDS011;28803;52.308;19.096;2022-11-25T07:41:33;80.43;;;23.88;;
43184;SDS011;28803;52.308;19.096;2022-11-25T07:44:02;86.55;;;23.90;;
43184;SDS011;28803;52.308;19.096;2022-11-25T07:46:31;87.13;;;24.48;;
43184;SDS011;28803;52.308;19.096;2022-11-25T07:49:01;75.90;;;21.90;;
43184;SDS011;28803;52.308;19.096;2022-11-25T07:51:31;75.65;;;22.50;;
43184;SDS011;28803;52.308;19.096;2022-11-25T07:54:02;91.97;;;23.73;;
43184;SDS011;28803;52.308;19.096;2022-11-25T07:56:31;101.40;;;25.95;;
43184;SDS011;28803;52.308;19.096;2022-11-25T07:59:00;90.53;;;25.73;;
43184;SDS011;28803;52.308;19.096;2022-11-25T08:01:27;75.32;;;23.50;;
43184;SDS011;28803;52.308;19.096;2022-11-25T08:03:55;98.53;;;25.80;;
43184;SDS011;28803;52.308;19.096;2022-11-25T08:06:26;75.68;;;22.13;;
43184;SDS011;28803;52.308;19.096;2022-11-25T08:08:55;83.03;;;22.83;;
43184;SDS011;28803;52.308;19.096;2022-11-25T08:11:24;89.85;;;24.95;;
43184;SDS011;28803;52.308;19.096;2022-11-25T08:13:53;75.50;;;23.05;;
43184;SDS011;28803;52.308;19.096;2022-11-25T08:16:23;79.15;;;25.88;;
43184;SDS011;28803;52.308;19.096;2022-11-25T08:18:53;86.73;;;24.93;;
43184;SDS011;28803;52.308;19.096;2022-11-25T08:21:21;93.50;;;23.83;;
43184;SDS011;28803;52.308;19.096;2022-11-25T08:23:48;85.75;;;26.02;;
43184;SDS011;28803;52.308;19.096;2022-11-25T08:26:19;87.53;;;24.60;;
43184;SDS011;28803;52.308;19.096;2022-11-25T08:28:49;85.80;;;24.42;;
43184;SDS011;28803;52.308;19.096;2022-11-25T08:31:18;72.70;;;21.50;;
43184;SDS011;28803;52.308;19.096;2022-11-25T08:33:48;76.65;;;23.52;;
43184;SDS011;28803;52.308;19.096;2022-11-25T08:36:15;72.95;;;25.15;;
43184;SDS011;28803;52.308;19.096;2022-11-25T08:38:44;84.50;;;24.27;;
43184;SDS011;28803;52.308;19.096;2022-11-25T08:41:13;85.75;;;26.92;;
43184;SDS011;28803;52.308;19.096;2022-11-25T08:43:43;91.70;;;28.08;;
43184;SDS011;28803;52.308;19.096;2022-11-25T08:46:11;90.70;;;29.63;;
43184;SDS011;28803;52.308;19.096;2022-11-25T08:48:42;81.13;;;28.05;;
43184;SDS011;28803;52.308;19.096;2022-11-25T08:51:11;79.18;;;25.10;;
43184;SDS011;28803;52.308;19.096;2022-11-25T08:53:40;72.25;;;24.50;;
43184;SDS011;28803;52.308;19.096;2022-11-25T08:56:08;73.15;;;25.60;;
43184;SDS011;28803;52.308;19.096;2022-11-25T08:58:36;70.43;;;23.25;;
43184;SDS011;28803;52.308;19.096;2022-11-25T09:01:04;74.20;;;24.33;;
43184;SDS011;28803;52.308;19.096;2022-11-25T09:03:33;67.30;;;22.60;;
43184;SDS011;28803;52.308;19.096;2022-11-25T09:06:02;66.90;;;21.50;;
43184;SDS011;28803;52.308;19.096;2022-11-25T09:08:30;67.05;;;20.65;;
43184;SDS011;28803;52.308;19.096;2022-11-25T09:10:57;63.92;;;21.92;;
43184;SDS011;28803;52.308;19.096;2022-11-25T09:13:25;67.05;;;22.55;;
43184;SDS011;28803;52.308;19.096;2022-11-25T09:15:52;58.30;;;20.75;;
43184;SDS011;28803;52.308;19.096;2022-11-25T09:18:20;66.75;;;22.88;;
43184;SDS011;28803;52.308;19.096;2022-11-25T09:20:51;65.97;;;22.17;;
43184;SDS011;28803;52.308;19.096;2022-11-25T09:23:19;64.53;;;22.42;;
43184;SDS011;28803;52.308;19.096;2022-11-25T09:25:52;69.85;;;24.50;;
43184;SDS011;28803;52.308;19.096;2022-11-25T09:28:20;106.93;;;37.42;;
43184;SDS011;28803;52.308;19.096;2022-11-25T09:30:47;134.60;;;57.45;;
43184;SDS011;28803;52.308;19.096;2022-11-25T09:33:16;344.83;;;128.55;;
43184;SDS011;28803;52.308;19.096;2022-11-25T09:35:43;719.10;;;307.63;;
43184;SDS011;28803;52.308;19.096;2022-11-25T09:38:10;418.80;;;168.13;;
43184;SDS011;28803;52.308;19.096;2022-11-25T09:40:52;340.38;;;143.27;;
43184;SDS011;28803;52.308;19.096;2022-11-25T09:57:48;64.63;;;26.48;;
43184;SDS011;28803;52.308;19.096;2022-11-25T10:00:40;71.35;;;26.05;;
43184;SDS011;28803;52.308;19.096;2022-11-25T10:03:31;82.38;;;34.33;;
43184;SDS011;28803;52.308;19.096;2022-11-25T10:08:44;66.15;;;22.70;;
43184;SDS011;28803;52.308;19.096;2022-11-25T10:22:21;64.55;;;23.42;;
43184;SDS011;28803;52.308;19.096;2022-11-25T10:24:55;67.80;;;25.58;;
43184;SDS011;28803;52.308;19.096;2022-11-25T10:27:30;71.15;;;26.73;;
43184;SDS011;28803;52.308;19.096;2022-11-25T10:30:17;68.68;;;24.25;;
43184;SDS011;28803;52.308;19.096;2022-11-25T10:32:54;99.47;;;45.25;;
43184;SDS011;28803;52.308;19.096;2022-11-25T10:35:52;79.75;;;33.17;;
43184;SDS011;28803;52.308;19.096;2022-11-25T10:41:08;60.78;;;24.83;;
43184;SDS011;28803;52.308;19.096;2022-11-25T10:43:41;68.97;;;24.50;;
43184;SDS011;28803;52.308;19.096;2022-11-25T10:52:12;57.22;;;20.75;;
43184;SDS011;28803;52.308;19.096;2022-11-25T10:54:39;58.47;;;24.25;;
43184;SDS011;28803;52.308;19.096;2022-11-25T10:57:17;72.82;;;26.88;;
43184;SDS011;28803;52.308;19.096;2022-11-25T10:59:55;53.92;;;22.15;;
43184;SDS011;28803;52.308;19.096;2022-11-25T11:02:30;57.10;;;21.45;;
43184;SDS011;28803;52.308;19.096;2022-11-25T11:07:39;95.10;;;39.13;;
43184;SDS011;28803;52.308;19.096;2022-11-25T11:15:24;57.33;;;20.30;;
43184;SDS011;28803;52.308;19.096;2022-11-25T11:17:54;44.95;;;20.08;;
43184;SDS011;28803;52.308;19.096;2022-11-25T11:20:23;54.22;;;23.60;;
43184;SDS011;28803;52.308;19.096;2022-11-25T11:25:42;44.92;;;18.30;;
43184;SDS011;28803;52.308;19.096;2022-11-25T11:28:24;45.65;;;18.15;;
43184;SDS011;28803;52.308;19.096;2022-11-25T11:30:56;39.17;;;17.00;;
43184;SDS011;28803;52.308;19.096;2022-11-25T11:39:01;52.83;;;20.17;;
43184;SDS011;28803;52.308;19.096;2022-11-25T11:41:51;41.05;;;16.42;;
43184;SDS011;28803;52.308;19.096;2022-11-25T11:44:39;43.63;;;18.27;;
43184;SDS011;28803;52.308;19.096;2022-11-25T11:47:22;37.95;;;18.40;;
43184;SDS011;28803;52.308;19.096;2022-11-25T11:50:11;41.10;;;18.42;;
43184;SDS011;28803;52.308;19.096;2022-11-25T11:53:05;38.13;;;17.67;;
43184;SDS011;28803;52.308;19.096;2022-11-25T11:58:57;28.90;;;11.85;;
43184;SDS011;28803;52.308;19.096;2022-11-25T12:06:59;33.85;;;14.45;;
43184;SDS011;28803;52.308;19.096;2022-11-25T12:09:38;41.75;;;16.55;;
43184;SDS011;28803;52.308;19.096;2022-11-25T12:12:14;35.58;;;14.57;;
43184;SDS011;28803;52.308;19.096;2022-11-25T12:14:54;37.30;;;15.13;;
43184;SDS011;28803;52.308;19.096;2022-11-25T12:17:52;33.50;;;13.68;;
43184;SDS011;28803;52.308;19.096;2022-11-25T12:20:31;40.50;;;15.20;;
43184;SDS011;28803;52.308;19.096;2022-11-25T12:23:01;40.30;;;18.30;;
43184;SDS011;28803;52.308;19.096;2022-11-25T12:25:40;44.47;;;17.05;;
43184;SDS011;28803;52.308;19.096;2022-11-25T12:36:33;61.63;;;20.40;;
43184;SDS011;28803;52.308;19.096;2022-11-25T12:39:28;56.75;;;18.10;;
43184;SDS011;28803;52.308;19.096;2022-11-25T12:42:11;47.97;;;18.50;;
43184;SDS011;28803;52.308;19.096;2022-11-25T12:47:25;57.28;;;20.20;;
43184;SDS011;28803;52.308;19.096;2022-11-25T12:49:53;59.17;;;20.73;;
43184;SDS011;28803;52.308;19.096;2022-11-25T12:52:25;54.03;;;21.20;;
43184;SDS011;28803;52.308;19.096;2022-11-25T12:55:22;60.00;;;20.95;;
43184;SDS011;28803;52.308;19.096;2022-11-25T13:00:35;227.98;;;80.13;;
43184;SDS011;28803;52.308;19.096;2022-11-25T13:17:27;63.80;;;21.75;;
43184;SDS011;28803;52.308;19.096;2022-11-25T13:25:34;65.97;;;23.92;;
43184;SDS011;28803;52.308;19.096;2022-11-25T13:28:03;70.90;;;23.80;;
43184;SDS011;28803;52.308;19.096;2022-11-25T13:30:51;67.45;;;24.65;;
43184;SDS011;28803;52.308;19.096;2022-11-25T13:35:47;73.47;;;25.58;;
43184;SDS011;28803;52.308;19.096;2022-11-25T13:40:57;68.43;;;26.00;;
43184;SDS011;28803;52.308;19.096;2022-11-25T13:43:24;76.90;;;22.98;;
43184;SDS011;28803;52.308;19.096;2022-11-25T13:45:51;51.85;;;21.23;;
43184;SDS011;28803;52.308;19.096;2022-11-25T13:48:20;58.53;;;21.15;;
43184;SDS011;28803;52.308;19.096;2022-11-25T13:51:13;55.63;;;19.55;;
43184;SDS011;28803;52.308;19.096;2022-11-25T13:54:04;61.10;;;20.95;;
43184;SDS011;28803;52.308;19.096;2022-11-25T13:56:33;97.47;;;31.10;;
43184;SDS011;28803;52.308;19.096;2022-11-25T14:04:13;75.82;;;24.35;;
43184;SDS011;28803;52.308;19.096;2022-11-25T14:06:48;76.70;;;22.58;;
43184;SDS011;28803;52.308;19.096;2022-11-25T14:12:32;75.18;;;25.35;;
43184;SDS011;28803;52.308;19.096;2022-11-25T14:18:13;86.40;;;23.88;;
43184;SDS011;28803;52.308;19.096;2022-11-25T14:21:08;85.35;;;24.15;;
43184;SDS011;28803;52.308;19.096;2022-11-25T14:24:18;78.78;;;22.70;;
43184;SDS011;28803;52.308;19.096;2022-11-25T14:27:18;72.85;;;23.05;;
43184;SDS011;28803;52.308;19.096;2022-11-25T14:29:54;80.95;;;26.17;;
43184;SDS011;28803;52.308;19.096;2022-11-25T14:32:39;71.22;;;20.83;;
43184;SDS011;28803;52.308;19.096;2022-11-25T14:35:20;72.57;;;19.80;;
43184;SDS011;28803;52.308;19.096;2022-11-25T14:37:50;68.95;;;21.63;;
43184;SDS011;28803;52.308;19.096;2022-11-25T14:40:30;73.43;;;22.63;;
43184;SDS011;28803;52.308;19.096;2022-11-25T14:43:02;72.80;;;23.15;;
43184;SDS011;28803;52.308;19.096;2022-11-25T14:45:33;63.05;;;21.75;;
43184;SDS011;28803;52.308;19.096;2022-11-25T14:48:24;64.65;;;20.83;;
43184;SDS011;28803;52.308;19.096;2022-11-25T14:50:53;85.60;;;22.80;;
43184;SDS011;28803;52.308;19.096;2022-11-25T14:53:25;82.20;;;25.10;;
43184;SDS011;28803;52.308;19.096;2022-11-25T14:55:53;81.35;;;23.52;;
43184;SDS011;28803;52.308;19.096;2022-11-25T14:58:25;74.32;;;23.10;;
43184;SDS011;28803;52.308;19.096;2022-11-25T15:03:22;62.08;;;20.17;;
43184;SDS011;28803;52.308;19.096;2022-11-25T15:05:54;70.78;;;22.42;;
43184;SDS011;28803;52.308;19.096;2022-11-25T15:08:23;76.28;;;22.77;;
43184;SDS011;28803;52.308;19.096;2022-11-25T15:11:12;75.07;;;24.63;;
43184;SDS011;28803;52.308;19.096;2022-11-25T15:13:45;72.10;;;22.38;;
43184;SDS011;28803;52.308;19.096;2022-11-25T15:16:21;78.25;;;22.83;;
43184;SDS011;28803;52.308;19.096;2022-11-25T15:18:56;71.75;;;23.17;;
43184;SDS011;28803;52.308;19.096;2022-11-25T15:21:28;83.68;;;24.55;;
43184;SDS011;28803;52.308;19.096;2022-11-25T15:23:57;90.97;;;23.63;;
43184;SDS011;28803;52.308;19.096;2022-11-25T15:26:26;74.05;;;23.02;;
43184;SDS011;28803;52.308;19.096;2022-11-25T15:28:59;69.25;;;24.65;;
43184;SDS011;28803;52.308;19.096;2022-11-25T15:31:32;96.85;;;26.23;;
43184;SDS011;28803;52.308;19.096;2022-11-25T15:34:05;84.75;;;23.70;;
43184;SDS011;28803;52.308;19.096;2022-11-25T15:36:36;88.78;;;25.63;;
43184;SDS011;28803;52.308;19.096;2022-11-25T15:39:13;70.13;;;22.80;;
43184;SDS011;28803;52.308;19.096;2022-11-25T15:44:23;80.93;;;24.02;;
43184;SDS011;28803;52.308;19.096;2022-11-25T15:47:06;64.22;;;23.35;;
43184;SDS011;28803;52.308;19.096;2022-11-25T15:49:41;91.03;;;26.52;;
43184;SDS011;28803;52.308;19.096;2022-11-25T15:52:16;96.53;;;27.20;;
43184;SDS011;28803;52.308;19.096;2022-11-25T15:54:47;86.07;;;24.23;;
43184;SDS011;28803;52.308;19.096;2022-11-25T15:57:17;99.15;;;25.23;;
43184;SDS011;28803;52.308;19.096;2022-11-25T15:59:49;88.72;;;25.77;;
43184;SDS011;28803;52.308;19.096;2022-11-25T16:07:39;115.47;;;27.75;;
43184;SDS011;28803;52.308;19.096;2022-11-25T16:13:15;120.13;;;26.40;;
43184;SDS011;28803;52.308;19.096;2022-11-25T16:26:39;131.63;;;31.77;;
43184;SDS011;28803;52.308;19.096;2022-11-25T16:29:29;147.35;;;34.70;;
43184;SDS011;28803;52.308;19.096;2022-11-25T16:32:12;142.15;;;32.67;;
43184;SDS011;28803;52.308;19.096;2022-11-25T16:34:41;139.82;;;34.30;;
43184;SDS011;28803;52.308;19.096;2022-11-25T16:37:08;142.35;;;32.33;;
43184;SDS011;28803;52.308;19.096;2022-11-25T16:39:36;124.05;;;33.65;;
43184;SDS011;28803;52.308;19.096;2022-11-25T16:42:04;147.70;;;36.42;;
43184;SDS011;28803;52.308;19.096;2022-11-25T16:44:33;146.98;;;36.42;;
43184;SDS011;28803;52.308;19.096;2022-11-25T16:47:02;138.25;;;36.50;;
43184;SDS011;28803;52.308;19.096;2022-11-25T16:49:29;141.38;;;34.00;;
43184;SDS011;28803;52.308;19.096;2022-11-25T16:51:57;115.32;;;33.42;;
43184;SDS011;28803;52.308;19.096;2022-11-25T16:54:24;137.25;;;33.15;;
43184;SDS011;28803;52.308;19.096;2022-11-25T16:56:52;178.63;;;36.00;;